Time;durP1;ratioP1;P1;durP2;ratioP2;P2;SDS_P1;SDS_P2;PMS_P1;PMS_P2;Temp;Humidity;BMP_temperature;BMP_pressure;BME280_temperature;BME280_humidity;BME280_pressure;Samples;Min_cycle;Max_cycle;Signal;HPM_P1;HPM_P2
2022/08/04 00:01:03;;;;;;;1.60;1.50;;;;;;;24.10;43.54;98655.25;5090478;28;42359;-73
2022/08/04 00:03:40;;;;;;;1.83;1.60;;;;;;;24.06;43.58;98651.25;5089755;28;40009;-73
2022/08/04 00:06:14;;;;;;;2.13;1.50;;;;;;;23.89;43.48;98634.34;5092545;28;40965;-73
2022/08/04 00:08:46;;;;;;;1.70;1.60;;;;;;;23.95;43.79;98652.56;5074622;28;41483;-73
2022/08/04 00:11:19;;;;;;;1.50;1.40;;;;;;;23.92;43.68;98650.22;5093284;28;20697;-73
2022/08/04 00:13:54;;;;;;;1.93;1.77;;;;;;;23.88;43.72;98657.84;5092178;28;39247;-73
2022/08/04 00:16:23;;;;;;;1.57;1.47;;;;;;;23.85;43.95;98663.66;5090183;28;42661;-73
2022/08/04 00:18:57;;;;;;;1.70;1.60;;;;;;;23.76;44.13;98648.50;5091700;28;42753;-73
2022/08/04 00:21:26;;;;;;;1.83;1.63;;;;;;;23.71;44.25;98653.66;5091941;28;42011;-73
2022/08/04 00:23:55;;;;;;;1.50;1.40;;;;;;;23.77;44.66;98660.16;5091623;28;39956;-73
2022/08/04 00:26:23;;;;;;;2.00;1.80;;;;;;;23.77;44.32;98669.13;5093117;28;41923;-73
2022/08/04 00:28:53;;;;;;;1.73;1.63;;;;;;;23.73;45.07;98670.53;5074683;28;41606;-73
2022/08/04 00:31:22;;;;;;;2.63;1.67;;;;;;;23.73;45.28;98665.13;5093243;28;42123;-73
2022/08/04 00:33:50;;;;;;;3.27;2.00;;;;;;;23.70;45.00;98665.47;5091663;28;39195;-73
2022/08/04 00:36:19;;;;;;;1.90;1.80;;;;;;;23.67;45.44;98665.00;5092982;28;42526;-73
2022/08/04 00:38:46;;;;;;;1.67;1.47;;;;;;;23.65;45.19;98667.88;5091404;28;42766;-73
2022/08/04 00:41:22;;;;;;;1.77;1.67;;;;;;;23.62;45.38;98668.25;5091616;28;42283;-73
2022/08/04 00:44:17;;;;;;;2.03;1.83;;;;;;;23.58;45.76;98656.13;5074530;28;40994;-73
2022/08/04 00:47:16;;;;;;;1.90;1.80;;;;;;;23.53;45.30;98663.94;5088706;28;42667;-73
2022/08/04 00:50:08;;;;;;;1.70;1.60;;;;;;;23.43;45.70;98652.53;5090574;28;42649;-73
2022/08/04 00:52:56;;;;;;;1.90;1.60;;;;;;;23.40;45.99;98650.19;5092598;28;42343;-74
2022/08/04 00:55:44;;;;;;;2.10;1.50;;;;;;;23.33;45.97;98660.03;5091429;28;39922;-73
2022/08/04 00:58:29;;;;;;;2.00;1.73;;;;;;;23.25;46.28;98658.22;5074197;28;40595;-73
2022/08/04 01:01:02;;;;;;;1.70;1.60;;;;;;;23.18;46.36;98663.53;5091747;28;41989;-73
2022/08/04 01:03:50;;;;;;;1.80;1.70;;;;;;;23.10;46.58;98660.06;5091535;28;41148;-73
2022/08/04 01:06:29;;;;;;;2.10;1.80;;;;;;;23.04;46.63;98668.88;5074734;28;38781;-73
2022/08/04 01:09:10;;;;;;;1.77;1.67;;;;;;;22.96;47.23;98661.69;5089834;28;41787;-73
2022/08/04 01:11:52;;;;;;;1.53;1.43;;;;;;;22.90;47.24;98657.81;5091272;28;42344;-73
2022/08/04 01:14:42;;;;;;;2.10;1.80;;;;;;;22.83;47.60;98656.03;5090814;28;42009;-73
2022/08/04 01:17:20;;;;;;;3.20;2.07;;;;;;;22.75;47.60;98661.44;5091592;28;40015;-73
2022/08/04 01:20:01;;;;;;;2.17;1.97;;;;;;;22.70;47.93;98661.13;5090675;28;40631;-73
2022/08/04 01:23:29;;;;;;;1.80;1.70;;;;;;;22.63;47.71;98665.53;5089213;28;44113;-73
2022/08/04 01:26:41;;;;;;;2.67;1.70;;;;;;;22.52;47.60;98659.53;5091378;28;42435;-73
2022/08/04 01:29:12;;;;;;;1.70;1.60;;;;;;;22.35;47.93;98646.31;5090667;28;39029;-72
2022/08/04 01:31:50;;;;;;;1.87;1.73;;;;;;;22.39;48.03;98658.41;5074014;28;41801;-73
2022/08/04 01:34:21;;;;;;;1.80;1.70;;;;;;;22.34;47.96;98655.41;5089263;28;43726;-73
2022/08/04 01:36:58;;;;;;;2.27;1.70;;;;;;;22.31;48.27;98645.81;5088709;28;42261;-73
2022/08/04 01:39:43;;;;;;;2.70;1.70;;;;;;;22.28;47.88;98651.53;5073616;28;40902;-73
2022/08/04 01:42:11;;;;;;;2.37;2.17;;;;;;;22.24;47.92;98654.78;5087871;28;41839;-73
2022/08/04 01:44:41;;;;;;;1.80;1.70;;;;;;;22.20;47.92;98651.59;5090357;28;42738;-73
2022/08/04 01:47:10;;;;;;;2.10;2.00;;;;;;;22.17;48.31;98643.84;5090705;28;42419;-73
2022/08/04 01:49:39;;;;;;;1.67;1.57;;;;;;;22.12;48.48;98654.31;5090547;28;40859;-73
2022/08/04 01:52:10;;;;;;;2.20;1.87;;;;;;;22.08;48.31;98650.28;5090522;28;40722;-73
2022/08/04 01:54:41;;;;;;;1.80;1.70;;;;;;;22.02;48.51;98651.81;5090338;28;42574;-73
2022/08/04 01:57:10;;;;;;;2.73;2.00;;;;;;;22.00;48.50;98651.16;5087590;28;42248;-73
2022/08/04 01:59:39;;;;;;;3.10;1.70;;;;;;;21.97;48.94;98642.53;5090252;28;39622;-73
2022/08/04 02:02:08;;;;;;;1.70;1.60;;;;;;;21.94;48.84;98648.25;5090309;28;40784;-73
2022/08/04 02:04:36;;;;;;;2.00;1.80;;;;;;;21.88;49.24;98644.41;5073272;28;41611;-73
2022/08/04 02:07:20;;;;;;;2.27;2.07;;;;;;;21.85;49.02;98653.69;5090119;28;41603;-73
2022/08/04 02:10:00;;;;;;;1.90;1.80;;;;;;;21.83;48.98;98652.19;5089735;28;39669;-73
2022/08/04 02:12:49;;;;;;;1.60;1.50;;;;;;;21.78;48.89;98658.06;5090725;28;40730;-73
2022/08/04 02:15:26;;;;;;;3.03;1.70;;;;;;;21.67;49.31;98647.66;5090047;28;43913;-73
2022/08/04 02:18:02;;;;;;;1.90;1.80;;;;;;;21.69;49.14;98651.00;5090341;28;41354;-73
2022/08/04 02:20:34;;;;;;;2.20;2.07;;;;;;;21.67;49.51;98657.59;5091497;28;42010;-74
2022/08/04 02:23:05;;;;;;;1.70;1.60;;;;;;;21.62;49.65;98649.19;5088565;28;41659;-73
2022/08/04 02:25:38;;;;;;;1.90;1.80;;;;;;;21.57;49.64;98652.38;5073576;28;42604;-73
2022/08/04 02:28:14;;;;;;;1.90;1.80;;;;;;;21.55;49.51;98653.56;5073083;28;41411;-73
2022/08/04 02:30:50;;;;;;;1.80;1.70;;;;;;;21.52;49.80;98650.19;5073158;28;40074;-73
2022/08/04 02:33:24;;;;;;;1.80;1.70;;;;;;;21.50;49.88;98648.69;5088579;28;42603;-73
2022/08/04 02:35:59;;;;;;;1.90;1.80;;;;;;;21.48;50.09;98653.41;5088112;28;42874;-73
2022/08/04 02:38:38;;;;;;;2.10;1.80;;;;;;;21.45;50.29;98642.97;5088556;28;43205;-73
2022/08/04 02:41:09;;;;;;;2.20;2.00;;;;;;;21.32;50.20;98627.31;5090203;28;39898;-73
2022/08/04 02:43:42;;;;;;;2.40;1.37;;;;;;;21.39;50.56;98635.53;5088495;28;41789;-73
2022/08/04 02:46:11;;;;;;;2.07;1.90;;;;;;;21.38;50.52;98639.28;5087037;28;42392;-73
2022/08/04 02:48:43;;;;;;;1.77;1.67;;;;;;;21.35;50.32;98643.16;5089614;28;42894;-74
2022/08/04 02:51:13;;;;;;;2.30;1.70;;;;;;;21.32;50.94;98634.56;5088180;28;40942;-73
2022/08/04 02:53:42;;;;;;;1.73;1.63;;;;;;;21.27;51.06;98628.81;5090382;28;41794;-73
2022/08/04 02:56:12;;;;;;;2.73;1.80;;;;;;;21.27;50.98;98631.50;5091019;28;42737;-73
2022/08/04 02:58:42;;;;;;;1.80;1.70;;;;;;;21.24;51.65;98629.19;5089406;28;41336;-74
2022/08/04 03:01:10;;;;;;;3.10;2.10;;;;;;;21.19;51.81;98626.97;5086254;28;40899;-74
2022/08/04 03:03:48;;;;;;;2.00;1.90;;;;;;;21.14;51.79;98634.72;5072437;28;41265;-74
2022/08/04 03:06:55;;;;;;;3.27;1.80;;;;;;;21.08;52.48;98624.59;5087860;28;42789;-73
2022/08/04 03:09:46;;;;;;;1.87;1.70;;;;;;;21.03;51.94;98627.78;5042949;28;41599;-73
2022/08/04 03:12:39;;;;;;;2.40;2.20;;;;;;;20.99;51.70;98628.31;5086810;28;39670;-73
2022/08/04 03:15:45;;;;;;;2.20;2.10;;;;;;;20.94;52.08;98634.19;5090193;28;41841;-73
2022/08/04 03:18:37;;;;;;;1.80;1.70;;;;;;;20.92;51.71;98641.56;5072539;28;42912;-73
2022/08/04 03:21:43;;;;;;;2.47;1.80;;;;;;;20.87;51.52;98633.16;5088952;28;42450;-72
2022/08/04 03:24:42;;;;;;;1.70;1.60;;;;;;;20.80;51.31;98637.53;5052124;28;39981;-72
2022/08/04 03:27:15;;;;;;;2.03;1.90;;;;;;;20.84;51.47;98638.88;5090966;28;42234;-74
2022/08/04 03:30:13;;;;;;;1.87;1.77;;;;;;;20.82;51.49;98640.91;5091760;28;43571;-73
2022/08/04 03:33:13;;;;;;;1.83;1.70;;;;;;;20.78;51.58;98640.38;5093245;28;42153;-74
2022/08/04 03:36:03;;;;;;;1.63;1.53;;;;;;;20.75;51.94;98650.66;5090857;28;40234;-71
2022/08/04 03:39:20;;;;;;;1.73;1.63;;;;;;;20.71;51.91;98647.44;5090102;28;41833;-72
2022/08/04 03:42:18;;;;;;;2.13;1.93;;;;;;;20.70;51.67;98655.66;5031251;28;43573;-72
2022/08/04 03:45:30;;;;;;;2.30;2.10;;;;;;;20.66;52.16;98648.94;5067297;28;42146;-72
2022/08/04 03:48:20;;;;;;;2.10;1.90;;;;;;;20.66;51.80;98646.22;5093840;28;39917;-72
2022/08/04 03:54:26;;;;;;;4.03;1.80;;;;;;;20.63;52.00;98646.59;5090242;28;43811;-72
2022/08/04 03:57:35;;;;;;;2.10;2.00;;;;;;;20.63;52.15;98649.28;5089559;28;42183;-72
2022/08/04 04:00:09;;;;;;;4.83;2.17;;;;;;;20.63;52.29;98651.97;5045387;28;39914;-72
2022/08/04 04:03:12;;;;;;;1.90;1.80;;;;;;;20.63;51.99;98654.66;5090620;28;42757;-73
2022/08/04 04:06:15;;;;;;;1.90;1.80;;;;;;;20.64;52.01;98656.34;5091975;28;42845;-73
2022/08/04 04:09:17;;;;;;;1.70;1.60;;;;;;;20.66;51.73;98654.31;5074681;28;41202;-73
2022/08/04 04:12:07;;;;;;;1.57;1.47;;;;;;;20.69;51.61;98656.69;5087737;28;39061;-73
2022/08/04 04:14:49;;;;;;;2.10;1.90;;;;;;;20.72;51.93;98650.97;5091884;28;40747;-73
2022/08/04 04:17:41;;;;;;;3.23;1.97;;;;;;;20.72;51.67;98648.28;5075470;28;41741;-73
2022/08/04 04:20:28;;;;;;;1.60;1.50;;;;;;;20.82;52.09;98657.03;5091534;28;43218;-73
2022/08/04 04:23:15;;;;;;;1.77;1.67;;;;;;;20.88;52.00;98661.78;5090362;28;40905;-73
2022/08/04 04:25:59;;;;;;;1.73;1.63;;;;;;;20.93;51.74;98663.94;5093372;28;41307;-73
2022/08/04 04:28:55;;;;;;;1.90;1.80;;;;;;;20.97;53.27;98655.38;5090454;28;43449;-73
2022/08/04 04:31:44;;;;;;;5.60;2.20;;;;;;;21.01;53.79;98662.13;5091543;28;41213;-73
2022/08/04 04:34:29;;;;;;;2.00;1.90;;;;;;;20.99;53.14;98648.00;5091869;28;38952;-73
2022/08/04 04:37:15;;;;;;;2.43;2.23;;;;;;;21.06;53.51;98659.75;5092780;28;41760;-73
2022/08/04 04:39:56;;;;;;;2.23;2.03;;;;;;;21.09;52.96;98663.97;5074607;28;41579;-73
2022/08/04 04:42:38;;;;;;;2.30;2.10;;;;;;;21.11;52.77;98668.19;5091558;28;41446;-73
2022/08/04 04:45:17;;;;;;;2.50;2.10;;;;;;;21.16;52.88;98665.81;5092527;28;40018;-73
2022/08/04 04:47:55;;;;;;;1.53;1.43;;;;;;;21.21;52.47;98668.06;5074711;28;40816;-73
2022/08/04 04:50:34;;;;;;;2.13;1.90;;;;;;;21.29;52.05;98664.50;5074465;28;41166;-73
2022/08/04 04:53:12;;;;;;;1.73;1.63;;;;;;;21.38;51.98;98668.91;5088616;28;42344;-73
2022/08/04 04:55:45;;;;;;;2.13;1.80;;;;;;;21.47;51.68;98674.13;5088630;28;40476;-73
2022/08/04 04:58:18;;;;;;;1.80;1.70;;;;;;;21.54;51.58;98679.66;5088470;28;41880;-73
2022/08/04 05:01:04;;;;;;;1.80;1.70;;;;;;;21.60;51.43;98679.00;5089397;28;43654;-73
2022/08/04 05:03:49;;;;;;;2.00;1.80;;;;;;;21.66;51.44;98677.47;5088770;28;42248;-73
2022/08/04 05:06:39;;;;;;;2.10;1.53;;;;;;;21.73;51.39;98673.94;5091112;28;39967;-73
2022/08/04 05:09:18;;;;;;;2.00;1.80;;;;;;;21.78;51.59;98673.41;5089175;28;42473;-73
2022/08/04 05:11:58;;;;;;;2.40;2.20;;;;;;;21.83;51.66;98679.13;5074504;28;41531;-73
2022/08/04 05:14:32;;;;;;;2.43;1.87;;;;;;;21.94;51.24;98675.22;5089642;28;42992;-73
2022/08/04 05:17:05;;;;;;;1.80;1.70;;;;;;;22.08;51.18;98678.09;5088147;28;40727;-73
2022/08/04 05:19:45;;;;;;;2.27;2.07;;;;;;;22.20;51.21;98674.00;5090910;28;40622;-73
2022/08/04 05:22:22;;;;;;;2.50;2.13;;;;;;;22.33;51.28;98675.31;5089102;28;43784;-73
2022/08/04 05:24:55;;;;;;;2.20;2.00;;;;;;;22.43;50.71;98684.88;5073767;28;41367;-73
2022/08/04 05:27:30;;;;;;;2.43;1.93;;;;;;;22.57;51.07;98684.13;5074614;28;38925;-73
2022/08/04 05:30:03;;;;;;;2.40;2.20;;;;;;;22.71;50.72;98684.41;5090133;28;42308;-73
2022/08/04 05:32:36;;;;;;;3.03;1.70;;;;;;;22.71;50.34;98662.81;5088039;28;43357;-73
2022/08/04 05:35:08;;;;;;;3.73;2.10;;;;;;;22.96;50.15;98685.97;5090395;28;41009;-73
2022/08/04 05:37:40;;;;;;;2.30;2.10;;;;;;;23.03;50.39;98686.94;5091120;28;38862;-73
2022/08/04 05:40:11;;;;;;;2.20;2.10;;;;;;;22.95;50.03;98659.16;5073789;28;40593;-74
2022/08/04 05:42:41;;;;;;;2.10;1.90;;;;;;;23.22;50.32;98691.88;5090683;28;42755;-77
2022/08/04 05:45:10;;;;;;;2.60;2.13;;;;;;;23.31;50.26;98692.66;5090879;28;42298;-78
2022/08/04 05:47:38;;;;;;;3.40;2.53;;;;;;;23.38;49.87;98695.47;5091220;28;40077;-77
2022/08/04 05:50:08;;;;;;;2.40;2.20;;;;;;;23.37;49.95;98672.19;5091981;28;42002;-76
2022/08/04 05:52:39;;;;;;;4.10;2.30;;;;;;;23.63;49.71;98699.66;5090454;28;42690;-76
2022/08/04 05:55:08;;;;;;;2.30;2.10;;;;;;;23.80;49.26;98697.66;5073685;28;42323;-76
2022/08/04 05:57:39;;;;;;;3.07;2.33;;;;;;;23.99;49.10;98703.38;5073799;28;40274;-76
2022/08/04 06:00:09;;;;;;;7.17;2.47;;;;;;;24.17;48.41;98704.91;5090366;28;41995;-77
2022/08/04 06:02:38;;;;;;;2.43;2.23;;;;;;;24.31;48.45;98706.81;5073370;28;41436;-77
2022/08/04 06:05:08;;;;;;;2.77;2.57;;;;;;;24.44;47.72;98711.56;5091315;28;42367;-77
2022/08/04 06:07:38;;;;;;;2.90;2.00;;;;;;;24.50;47.64;98706.22;5090774;28;42015;-76
2022/08/04 06:10:07;;;;;;;2.10;2.00;;;;;;;24.63;47.30;98713.69;5089701;28;41853;-77
2022/08/04 06:12:41;;;;;;;2.53;2.33;;;;;;;24.76;46.98;98721.13;5090719;28;42783;-77
2022/08/04 06:15:12;;;;;;;2.40;2.20;;;;;;;24.95;46.40;98707.03;5090317;28;41395;-77
2022/08/04 06:17:48;;;;;;;1.93;1.73;;;;;;;25.12;46.32;98716.59;5090932;28;39987;-77
2022/08/04 06:20:18;;;;;;;2.10;1.90;;;;;;;25.28;46.14;98721.78;5072914;28;40777;-77
2022/08/04 06:22:52;;;;;;;4.17;2.60;;;;;;;25.36;45.56;98712.66;5090852;28;42323;-77
2022/08/04 06:25:23;;;;;;;2.10;1.90;;;;;;;25.61;45.20;98727.53;5090200;28;42238;-76
2022/08/04 06:27:52;;;;;;;3.20;2.60;;;;;;;25.85;44.94;98728.16;5090339;28;38827;-77
2022/08/04 06:30:24;;;;;;;2.03;1.93;;;;;;;26.13;44.28;98732.56;5073134;28;41896;-77
2022/08/04 06:32:56;;;;;;;1.83;1.73;;;;;;;26.41;43.61;98729.00;5087336;28;42674;-77
2022/08/04 06:35:26;;;;;;;2.67;1.97;;;;;;;26.64;43.64;98735.00;5090116;28;43403;-76
2022/08/04 06:37:58;;;;;;;2.13;1.90;;;;;;;26.92;42.74;98742.22;5090197;28;39893;-77
2022/08/04 06:40:28;;;;;;;2.57;1.93;;;;;;;27.22;42.28;98740.88;5091335;28;41811;-77
2022/08/04 06:42:56;;;;;;;2.20;1.90;;;;;;;27.62;41.42;98743.72;5073250;28;42611;-77
2022/08/04 06:45:25;;;;;;;2.30;2.10;;;;;;;28.13;41.00;98754.81;5089698;28;41350;-77
2022/08/04 06:47:54;;;;;;;2.03;1.90;;;;;;;28.50;40.65;98758.78;5090273;28;40885;-77
2022/08/04 06:50:23;;;;;;;2.30;2.00;;;;;;;28.87;39.12;98760.81;5072912;28;39910;-77
2022/08/04 06:52:51;;;;;;;2.70;2.20;;;;;;;29.11;39.38;98755.66;5072902;28;42245;-77
2022/08/04 06:55:23;;;;;;;2.37;1.87;;;;;;;29.48;38.46;98765.78;5091123;28;41247;-77
2022/08/04 06:57:53;;;;;;;3.10;2.10;;;;;;;29.76;37.64;98764.56;5076670;28;39679;-77
2022/08/04 07:00:22;;;;;;;2.73;1.77;;;;;;;29.83;37.14;98770.78;5093369;28;41728;-77
2022/08/04 07:02:52;;;;;;;3.73;2.00;;;;;;;29.80;37.13;98757.56;5076321;28;42819;-76
2022/08/04 07:05:21;;;;;;;1.80;1.70;;;;;;;29.74;37.24;98751.13;5075945;28;41120;-77
2022/08/04 07:07:49;;;;;;;2.23;2.00;;;;;;;29.80;37.36;98754.84;5092472;28;39884;-77
2022/08/04 07:10:18;;;;;;;2.63;2.00;;;;;;;29.91;37.27;98759.63;5070162;28;43962;-77
2022/08/04 07:12:48;;;;;;;1.77;1.67;;;;;;;30.03;36.96;98760.59;5065022;28;41714;-79
2022/08/04 07:15:18;;;;;;;2.27;2.07;;;;;;;30.18;36.93;98757.50;5079369;28;42045;-77
2022/08/04 07:17:47;;;;;;;3.70;2.00;;;;;;;30.33;36.57;98766.19;5093721;28;38886;-77
2022/08/04 07:20:15;;;;;;;2.13;1.93;;;;;;;30.47;36.58;98766.91;5072507;28;41851;-76
2022/08/04 07:22:43;;;;;;;1.97;1.87;;;;;;;30.63;36.69;98760.88;5072588;28;43395;-75
2022/08/04 07:25:12;;;;;;;1.77;1.67;;;;;;;30.81;36.30;98755.41;5072517;28;43287;-76
2022/08/04 07:27:39;;;;;;;2.30;2.07;;;;;;;31.02;35.65;98763.16;5072774;28;40015;-75
2022/08/04 07:30:10;;;;;;;2.40;2.20;;;;;;;31.33;35.03;98761.28;5072401;28;41962;-75
2022/08/04 07:32:38;;;;;;;1.77;1.67;;;;;;;31.58;35.06;98764.72;5072577;28;41835;-76
2022/08/04 07:35:08;;;;;;;1.90;1.80;;;;;;;31.77;34.42;98765.53;5078444;28;42476;-78
2022/08/04 07:37:37;;;;;;;2.70;1.90;;;;;;;32.15;33.93;98764.28;5083216;28;38904;-76
2022/08/04 07:40:06;;;;;;;2.80;1.90;;;;;;;32.46;33.56;98764.78;5070440;28;41842;-76
2022/08/04 07:42:34;;;;;;;2.17;1.83;;;;;;;32.73;33.84;98767.06;5076303;28;41738;-75
2022/08/04 07:45:01;;;;;;;2.20;2.00;;;;;;;32.87;33.00;98770.38;5075144;28;43696;-76
2022/08/04 07:47:30;;;;;;;2.27;1.90;;;;;;;32.95;32.55;98770.84;5091000;28;40753;-76
2022/08/04 07:49:58;;;;;;;2.70;2.00;;;;;;;33.17;32.30;98768.25;5088735;28;40705;-76
2022/08/04 07:52:27;;;;;;;2.37;2.17;;;;;;;33.40;32.17;98772.84;5091884;28;42759;-76
2022/08/04 07:54:56;;;;;;;1.97;1.87;;;;;;;33.46;31.59;98760.91;5088068;28;41932;-75
2022/08/04 07:57:23;;;;;;;2.43;2.00;;;;;;;33.62;31.02;98776.59;5090163;28;40012;-75
2022/08/04 07:59:51;;;;;;;2.80;1.80;;;;;;;33.75;30.77;98784.56;5092181;28;42667;-76
2022/08/04 08:02:21;;;;;;;2.30;2.10;;;;;;;33.89;30.37;98750.19;5090532;28;42606;-77
2022/08/04 08:04:51;;;;;;;2.97;1.87;;;;;;;34.43;29.33;98789.03;5090311;28;43346;-77
2022/08/04 08:07:19;;;;;;;1.63;1.53;;;;;;;34.66;28.96;98781.66;5091290;28;41160;-77
2022/08/04 08:09:47;;;;;;;1.90;1.80;;;;;;;34.87;28.80;98783.63;5072474;28;40630;-77
2022/08/04 08:12:16;;;;;;;2.50;1.73;;;;;;;34.98;28.76;98766.19;5090675;28;42872;-79
2022/08/04 08:14:44;;;;;;;1.70;1.60;;;;;;;35.31;27.93;98786.41;5090338;28;43579;-77
2022/08/04 08:17:12;;;;;;;2.20;1.70;;;;;;;35.83;28.06;98784.81;5074921;28;40046;-77
2022/08/04 08:19:40;;;;;;;1.70;1.60;;;;;;;36.58;27.05;98791.25;5092134;28;41747;-77
2022/08/04 08:22:11;;;;;;;1.80;1.70;;;;;;;37.17;26.46;98786.34;5091870;28;42894;-77
2022/08/04 08:24:39;;;;;;;1.83;1.73;;;;;;;37.51;25.76;98791.44;5075160;28;41164;-77
2022/08/04 08:27:07;;;;;;;2.00;1.90;;;;;;;37.90;25.26;98789.06;5091967;28;39105;-77
2022/08/04 08:29:37;;;;;;;2.27;2.00;;;;;;;38.05;24.92;98792.66;5093096;28;41641;-77
2022/08/04 08:32:12;;;;;;;1.95;1.70;;;;;;;38.27;24.97;98788.81;5091784;28;42630;-77
2022/08/04 08:34:40;;;;;;;2.45;1.80;;;;;;;38.84;24.60;98794.00;5090588;28;42591;-75
2022/08/04 08:37:19;;;;;;;1.80;1.70;;;;;;;39.69;23.82;98794.78;5074788;28;39702;-77
2022/08/04 08:39:54;;;;;;;2.22;2.00;;;;;;;40.48;23.03;98790.88;5091054;28;42821;-78
2022/08/04 08:42:42;;;;;;;2.38;1.92;;;;;;;40.95;22.09;98805.13;5090058;28;42803;-74
2022/08/04 08:45:33;;;;;;;1.85;1.75;;;;;;;41.16;22.01;98806.59;5091424;28;42279;-78
2022/08/04 08:48:33;;;;;;;2.60;2.10;;;;;;;41.41;21.92;98803.50;5091732;28;39241;-75
2022/08/04 08:51:23;;;;;;;1.98;1.85;;;;;;;42.33;21.05;98802.13;5089029;28;41820;-79
2022/08/04 08:54:08;;;;;;;1.90;1.80;;;;;;;43.71;19.39;98810.31;5074907;28;41676;-75
2022/08/04 08:56:46;;;;;;;1.88;1.77;;;;;;;45.02;18.23;98808.97;5092027;28;42308;-76
2022/08/04 08:59:39;;;;;;;1.98;1.77;;;;;;;45.76;17.47;98777.41;5090050;28;39719;-77
2022/08/04 09:02:33;;;;;;;2.22;1.70;;;;;;;46.63;17.26;98804.19;5089429;28;41639;-77
2022/08/04 09:05:24;;;;;;;3.78;1.60;;;;;;;46.70;17.05;98809.31;5091029;28;42700;-76
2022/08/04 09:08:07;;;;;;;2.10;1.63;;;;;;;45.87;16.99;98811.53;5090635;28;44150;-77
2022/08/04 09:10:44;;;;;;;2.20;1.67;;;;;;;45.23;17.73;98800.03;5091072;28;39295;-78
2022/08/04 09:13:20;;;;;;;1.73;1.63;;;;;;;45.15;17.34;98795.22;5089422;28;41561;-78
2022/08/04 09:15:56;;;;;;;1.70;1.60;;;;;;;44.93;17.64;98790.50;5074549;28;41565;-77
2022/08/04 09:18:32;;;;;;;1.50;1.40;;;;;;;44.69;18.12;98785.28;5073177;28;42223;-77
2022/08/04 09:21:04;;;;;;;1.83;1.73;;;;;;;44.56;18.45;98780.63;5074166;28;38707;-77
2022/08/04 09:23:49;;;;;;;3.10;1.65;;;;;;;44.43;18.06;98781.53;5089554;28;41708;-76
2022/08/04 09:26:24;;;;;;;2.42;1.63;;;;;;;44.51;18.48;98775.19;5091012;28;42211;-78
2022/08/04 09:29:00;;;;;;;3.83;1.73;;;;;;;44.21;18.34;98779.56;5088381;28;42441;-78
2022/08/04 09:31:33;;;;;;;2.22;2.05;;;;;;;43.84;18.30;98780.72;5087786;28;41607;-77
2022/08/04 09:34:12;;;;;;;2.58;1.60;;;;;;;43.84;18.02;98775.16;5089207;28;42760;-77
2022/08/04 09:36:46;;;;;;;1.70;1.60;;;;;;;44.21;18.23;98774.81;5088837;28;43681;-77
2022/08/04 09:39:25;;;;;;;1.38;1.38;;;;;;;44.32;17.87;98773.38;5089318;28;43180;-77
2022/08/04 09:42:18;;;;;;;2.60;1.50;;;;;;;44.25;17.82;98764.66;5073843;28;39338;-77
2022/08/04 09:44:57;;;;;;;1.55;1.45;;;;;;;44.61;17.23;98766.53;5091246;28;41810;-77
2022/08/04 09:47:35;;;;;;;5.50;1.67;;;;;;;44.82;16.97;98776.00;5091003;28;41566;-75
2022/08/04 09:50:15;;;;;;;1.63;1.52;;;;;;;44.66;17.62;98761.59;5090136;28;42165;-75
2022/08/04 09:52:52;;;;;;;2.25;1.30;;;;;;;44.47;17.55;98761.03;5088812;28;39869;-76
2022/08/04 09:55:34;;;;;;;1.50;1.30;;;;;;;44.92;17.13;98772.09;5090284;28;41745;-76
2022/08/04 09:58:11;;;;;;;1.45;1.35;;;;;;;46.45;15.72;98769.81;5087550;28;43691;-77
2022/08/04 10:00:47;;;;;;;1.88;1.38;;;;;;;47.19;14.72;98783.41;5090402;28;42653;-74
2022/08/04 10:03:16;;;;;;;1.75;1.30;;;;;;;46.41;14.56;98770.81;5088830;28;40779;-75
2022/08/04 10:05:58;;;;;;;1.27;1.27;;;;;;;45.58;15.13;98770.16;5089923;28;42726;-75
2022/08/04 10:08:44;;;;;;;1.10;1.10;;;;;;;45.08;15.46;98765.75;5088039;28;42388;-75
2022/08/04 10:11:21;;;;;;;1.88;1.20;;;;;;;44.85;15.75;98758.59;5073812;28;41188;-75
2022/08/04 10:13:59;;;;;;;1.38;1.27;;;;;;;44.66;16.17;98752.38;5089258;28;39961;-75
2022/08/04 10:16:40;;;;;;;1.58;1.30;;;;;;;44.47;15.72;98707.13;5073838;28;42064;-75
2022/08/04 10:19:21;;;;;;;1.45;1.35;;;;;;;45.68;14.98;98751.06;5073533;28;41835;-76
2022/08/04 10:21:59;;;;;;;1.30;1.20;;;;;;;47.52;13.76;98757.47;5087943;28;42250;-75
2022/08/04 10:24:42;;;;;;;1.48;1.38;;;;;;;48.63;12.87;98751.16;5089812;28;40021;-76
2022/08/04 10:27:16;;;;;;;1.38;1.27;;;;;;;49.52;12.34;98771.84;5087455;28;41884;-75
2022/08/04 10:29:47;;;;;;;1.48;1.38;;;;;;;49.69;12.32;98767.94;5091690;28;42841;-77
2022/08/04 10:32:21;;;;;;;1.00;1.00;;;;;;;49.71;12.12;98766.38;5094139;28;40889;-77
2022/08/04 10:35:01;;;;;;;2.13;1.15;;;;;;;49.93;11.91;98756.59;5092980;28;39706;-77
2022/08/04 10:37:33;;;;;;;1.00;1.00;;;;;;;49.42;12.04;98747.78;5076608;28;42177;-76
2022/08/04 10:43:00;;;;;;;1.33;1.25;;;;;;;48.19;12.49;98736.75;5076638;28;42636;-77
2022/08/04 10:45:36;;;;;;;1.45;1.35;;;;;;;48.61;12.18;98743.06;5093502;28;38892;-77
2022/08/04 10:48:11;;;;;;;1.80;1.30;;;;;;;49.58;12.17;98743.06;5076751;28;41712;-76
2022/08/04 10:50:48;;;;;;;2.53;1.23;;;;;;;49.19;12.06;98722.16;5093730;28;41642;-77
2022/08/04 10:53:22;;;;;;;1.35;1.00;;;;;;;48.69;12.42;98724.47;5091770;28;42996;-77
2022/08/04 10:55:57;;;;;;;1.33;1.23;;;;;;;48.23;12.96;98692.75;5091584;28;39786;-77
2022/08/04 10:58:31;;;;;;;2.60;1.55;;;;;;;48.97;12.70;98724.59;5076222;28;40298;-77
2022/08/04 11:01:05;;;;;;;1.10;1.10;;;;;;;49.55;12.01;98731.72;5090475;28;43617;-77
2022/08/04 11:03:41;;;;;;;1.38;1.10;;;;;;;49.78;11.67;98729.16;5076538;28;42208;-77
2022/08/04 11:06:09;;;;;;;1.52;1.42;;;;;;;49.07;12.55;98722.16;5090311;28;39891;-77
2022/08/04 11:08:41;;;;;;;1.45;1.35;;;;;;;48.47;13.14;98720.91;5091734;28;41616;-77
2022/08/04 11:11:13;;;;;;;1.38;1.27;;;;;;;48.02;13.37;98714.44;5091608;28;43544;-77
2022/08/04 11:13:45;;;;;;;1.40;1.30;;;;;;;48.12;13.45;98716.81;5075936;28;40474;-77
2022/08/04 11:16:21;;;;;;;1.83;1.50;;;;;;;48.52;12.54;98717.06;5091541;28;40824;-77
2022/08/04 11:19:07;;;;;;;1.40;1.30;;;;;;;49.02;12.89;98719.56;5092183;28;41763;-77
2022/08/04 11:21:42;;;;;;;1.08;1.08;;;;;;;49.55;12.38;98721.28;5091093;28;43732;-77
2022/08/04 11:24:16;;;;;;;1.75;1.65;;;;;;;49.97;12.26;98715.25;5091860;28;42002;-76
2022/08/04 11:26:49;;;;;;;1.58;1.48;;;;;;;50.23;12.08;98707.16;5092469;28;40560;-76
2022/08/04 11:29:25;;;;;;;1.40;1.30;;;;;;;50.05;12.81;98711.47;5092877;28;40552;-77
2022/08/04 11:31:59;;;;;;;1.23;1.20;;;;;;;49.62;12.59;98712.22;5091061;28;43668;-77
2022/08/04 11:34:28;;;;;;;1.35;1.25;;;;;;;49.23;12.63;98720.25;5075969;28;42204;-77
2022/08/04 11:37:06;;;;;;;1.50;1.40;;;;;;;48.93;12.76;98718.88;5075848;28;40443;-75
2022/08/04 11:39:36;;;;;;;3.47;1.48;;;;;;;48.59;12.63;98711.69;5092441;28;41929;-76
2022/08/04 11:42:23;;;;;;;2.40;1.23;;;;;;;48.44;12.99;98713.16;5093490;28;42204;-76
2022/08/04 11:44:55;;;;;;;1.20;1.17;;;;;;;48.23;13.00;98695.56;5093794;28;42511;-77
2022/08/04 11:47:30;;;;;;;1.40;1.30;;;;;;;48.28;12.48;98672.84;5089746;28;40931;-77
2022/08/04 11:50:04;;;;;;;1.60;1.50;;;;;;;48.77;12.63;98692.59;5075395;28;43561;-77
2022/08/04 11:52:34;;;;;;;1.92;1.50;;;;;;;49.09;12.20;98707.72;5090531;28;43703;-78
2022/08/04 11:55:05;;;;;;;1.30;1.20;;;;;;;49.20;12.18;98709.72;5092290;28;43320;-77
2022/08/04 11:57:34;;;;;;;1.27;1.20;;;;;;;49.80;12.15;98702.28;5089352;28;39818;-77
2022/08/04 12:00:05;;;;;;;1.83;1.20;;;;;;;50.85;11.54;98688.59;5092334;28;42221;-77
2022/08/04 12:02:58;;;;;;;1.10;1.10;;;;;;;52.77;10.55;98694.63;5090628;28;42298;-77
2022/08/04 12:05:32;;;;;;;1.10;1.10;;;;;;;54.01;9.52;98700.03;5092068;28;41085;-77
2022/08/04 12:08:11;;;;;;;1.25;1.25;;;;;;;55.12;9.54;98694.19;5082779;28;41620;-79
2022/08/04 12:10:48;;;;;;;1.45;1.33;;;;;;;56.30;8.79;98691.81;5092015;28;41712;-78
2022/08/04 12:13:28;;;;;;;1.80;1.20;;;;;;;56.64;8.78;98689.41;5084819;28;42022;-79
2022/08/04 12:16:03;;;;;;;1.52;1.10;;;;;;;55.51;9.23;98697.28;5090085;28;42085;-79
2022/08/04 12:18:38;;;;;;;1.00;1.00;;;;;;;54.54;9.35;98681.94;5089743;28;40598;-78
2022/08/04 12:21:11;;;;;;;1.23;1.20;;;;;;;53.52;9.78;98676.75;5090088;28;41557;-78
2022/08/04 12:23:40;;;;;;;1.35;1.25;;;;;;;53.69;9.76;98664.81;5086352;28;42811;-78
2022/08/04 12:26:14;;;;;;;1.40;1.30;;;;;;;53.98;9.69;98677.31;5091314;28;42175;-78